sensor_id;sensor_type;location;lat;lon;timestamp;pressure;altitude;pressure_sealevel;temperature;humidity
64602;BME280;51013;42.630;23.192;2022-12-18T00:02:26;92695.16;;;4.80;100.00
64602;BME280;51013;42.630;23.192;2022-12-18T00:04:52;92993.97;;;6.77;100.00
64602;BME280;51013;42.630;23.192;2022-12-18T00:07:19;93017.13;;;6.93;100.00
64602;BME280;51013;42.630;23.192;2022-12-18T00:09:46;92898.38;;;6.22;99.68
64602;BME280;51013;42.630;23.192;2022-12-18T00:12:13;92918.56;;;6.17;99.46
64602;BME280;51013;42.630;23.192;2022-12-18T00:14:40;92875.31;;;6.02;99.17
64602;BME280;51013;42.630;23.192;2022-12-18T00:17:10;92904.63;;;6.21;98.39
64602;BME280;51013;42.630;23.192;2022-12-18T00:19:39;92746.72;;;5.06;98.46
64602;BME280;51013;42.630;23.192;2022-12-18T00:22:06;92999.13;;;6.69;99.16
64602;BME280;51013;42.630;23.192;2022-12-18T00:24:33;93005.44;;;6.54;99.78
64602;BME280;51013;42.630;23.192;2022-12-18T00:27:00;93013.34;;;6.62;99.94
64602;BME280;51013;42.630;23.192;2022-12-18T00:29:27;92822.25;;;5.20;99.90
64602;BME280;51013;42.630;23.192;2022-12-18T00:31:54;92693.16;;;4.36;100.00
64602;BME280;51013;42.630;23.192;2022-12-18T00:34:20;92998.03;;;6.47;99.92
64602;BME280;51013;42.630;23.192;2022-12-18T00:36:49;92973.97;;;6.36;98.92
64602;BME280;51013;42.630;23.192;2022-12-18T00:39:16;92766.03;;;4.91;97.84
64602;BME280;51013;42.630;23.192;2022-12-18T00:41:43;92879.72;;;5.65;98.33
64602;BME280;51013;42.630;23.192;2022-12-18T00:44:27;92824.09;;;5.19;98.62
64602;BME280;51013;42.630;23.192;2022-12-18T00:46:54;92931.75;;;5.84;98.26
64602;BME280;51013;42.630;23.192;2022-12-18T00:49:21;93045.94;;;6.65;98.47
64602;BME280;51013;42.630;23.192;2022-12-18T00:51:49;93041.72;;;6.55;97.73
64602;BME280;51013;42.630;23.192;2022-12-18T00:54:16;93044.59;;;6.54;98.21
64602;BME280;51013;42.630;23.192;2022-12-18T00:56:43;92867.09;;;5.45;97.65
64602;BME280;51013;42.630;23.192;2022-12-18T00:59:11;93051.25;;;6.60;97.59
64602;BME280;51013;42.630;23.192;2022-12-18T01:01:38;92756.28;;;4.55;96.55
64602;BME280;51013;42.630;23.192;2022-12-18T01:04:05;92950.38;;;5.77;96.36
64602;BME280;51013;42.630;23.192;2022-12-18T01:06:32;92860.72;;;5.23;96.60
64602;BME280;51013;42.630;23.192;2022-12-18T01:09:01;93009.88;;;6.31;96.30
64602;BME280;51013;42.630;23.192;2022-12-18T01:11:28;92911.59;;;5.48;95.88
64602;BME280;51013;42.630;23.192;2022-12-18T01:13:55;93063.94;;;6.53;95.32
64602;BME280;51013;42.630;23.192;2022-12-18T01:16:24;92953.94;;;5.68;95.14
64602;BME280;51013;42.630;23.192;2022-12-18T01:18:52;92929.63;;;5.58;95.44
64602;BME280;51013;42.630;23.192;2022-12-18T01:21:21;92832.34;;;4.80;96.32
64602;BME280;51013;42.630;23.192;2022-12-18T01:23:51;92969.50;;;5.73;96.56
64602;BME280;51013;42.630;23.192;2022-12-18T01:26:20;92906.16;;;5.31;96.20
64602;BME280;51013;42.630;23.192;2022-12-18T01:28:47;92840.56;;;4.87;96.09
64602;BME280;51013;42.630;23.192;2022-12-18T01:31:17;93079.44;;;6.35;96.19
64602;BME280;51013;42.630;23.192;2022-12-18T01:33:44;92734.06;;;4.03;95.70
64602;BME280;51013;42.630;23.192;2022-12-18T01:36:18;92705.44;;;3.89;96.08
64602;BME280;51013;42.630;23.192;2022-12-18T01:38:45;92934.28;;;5.34;95.97
64602;BME280;51013;42.630;23.192;2022-12-18T01:41:13;92714.16;;;3.79;95.95
64602;BME280;51013;42.630;23.192;2022-12-18T01:43:52;93061.78;;;6.05;95.93
64602;BME280;51013;42.630;23.192;2022-12-18T01:46:21;93073.06;;;6.14;96.08
64602;BME280;51013;42.630;23.192;2022-12-18T01:48:53;92892.22;;;4.80;96.03
64602;BME280;51013;42.630;23.192;2022-12-18T01:51:23;92725.34;;;3.79;95.48
64602;BME280;51013;42.630;23.192;2022-12-18T01:53:51;92950.47;;;5.31;95.98
64602;BME280;51013;42.630;23.192;2022-12-18T01:56:21;92879.66;;;4.68;95.62
64602;BME280;51013;42.630;23.192;2022-12-18T01:58:59;93039.94;;;5.40;97.07
64602;BME280;51013;42.630;23.192;2022-12-18T02:01:30;92910.41;;;4.66;97.30
64602;BME280;51013;42.630;23.192;2022-12-18T02:04:19;92962.66;;;5.02;96.95
64602;BME280;51013;42.630;23.192;2022-12-18T02:06:47;92801.09;;;3.87;96.09
64602;BME280;51013;42.630;23.192;2022-12-18T02:09:21;92826.59;;;3.85;97.32
64602;BME280;51013;42.630;23.192;2022-12-18T02:11:58;93085.94;;;5.77;97.40
64602;BME280;51013;42.630;23.192;2022-12-18T02:14:33;93098.50;;;5.75;97.04
64602;BME280;51013;42.630;23.192;2022-12-18T02:17:06;92781.53;;;3.75;96.48
64602;BME280;51013;42.630;23.192;2022-12-18T02:19:48;92751.81;;;3.63;96.14
64602;BME280;51013;42.630;23.192;2022-12-18T02:22:27;93102.63;;;5.95;95.45
64602;BME280;51013;42.630;23.192;2022-12-18T02:25:06;93091.56;;;5.85;95.80
64602;BME280;51013;42.630;23.192;2022-12-18T02:27:43;92853.94;;;4.34;95.50
64602;BME280;51013;42.630;23.192;2022-12-18T02:30:13;93035.91;;;5.48;95.60
64602;BME280;51013;42.630;23.192;2022-12-18T02:32:43;92988.41;;;5.37;94.80
64602;BME280;51013;42.630;23.192;2022-12-18T02:35:17;92930.63;;;4.88;94.50
64602;BME280;51013;42.630;23.192;2022-12-18T02:37:46;92788.59;;;4.08;94.69
64602;BME280;51013;42.630;23.192;2022-12-18T02:40:15;92952.94;;;5.08;93.95
64602;BME280;51013;42.630;23.192;2022-12-18T02:42:45;92771.47;;;3.88;93.92
64602;BME280;51013;42.630;23.192;2022-12-18T02:45:13;93020.53;;;5.32;94.38
64602;BME280;51013;42.630;23.192;2022-12-18T02:47:44;93009.69;;;5.11;95.32
64602;BME280;51013;42.630;23.192;2022-12-18T02:50:18;93068.63;;;5.54;95.79
64602;BME280;51013;42.630;23.192;2022-12-18T02:52:56;93091.16;;;5.77;95.39
64602;BME280;51013;42.630;23.192;2022-12-18T02:55:33;93113.00;;;5.81;95.47
64602;BME280;51013;42.630;23.192;2022-12-18T02:58:10;93123.97;;;5.97;95.60
64602;BME280;51013;42.630;23.192;2022-12-18T03:00:43;92879.28;;;4.28;95.75
64602;BME280;51013;42.630;23.192;2022-12-18T03:03:16;92878.66;;;4.17;95.97
64602;BME280;51013;42.630;23.192;2022-12-18T03:05:52;92897.22;;;4.11;95.80
64602;BME280;51013;42.630;23.192;2022-12-18T03:08:21;93014.72;;;4.89;95.15
64602;BME280;51013;42.630;23.192;2022-12-18T03:10:53;92957.06;;;4.63;95.08
64602;BME280;51013;42.630;23.192;2022-12-18T03:13:30;92880.91;;;3.86;94.86
64602;BME280;51013;42.630;23.192;2022-12-18T03:16:00;93132.25;;;5.53;95.35
64602;BME280;51013;42.630;23.192;2022-12-18T03:18:30;93019.16;;;4.69;94.19
64602;BME280;51013;42.630;23.192;2022-12-18T03:21:04;92995.69;;;4.55;95.55
64602;BME280;51013;42.630;23.192;2022-12-18T03:23:36;92945.13;;;4.24;94.43
64602;BME280;51013;42.630;23.192;2022-12-18T03:26:07;92943.66;;;4.17;94.48
64602;BME280;51013;42.630;23.192;2022-12-18T03:28:40;92899.75;;;3.97;94.58
64602;BME280;51013;42.630;23.192;2022-12-18T03:31:10;92847.53;;;3.55;94.23
64602;BME280;51013;42.630;23.192;2022-12-18T03:33:41;92822.97;;;3.48;93.76
64602;BME280;51013;42.630;23.192;2022-12-18T03:36:10;92890.81;;;3.84;93.71
64602;BME280;51013;42.630;23.192;2022-12-18T03:38:38;93047.59;;;4.85;93.39
64602;BME280;51013;42.630;23.192;2022-12-18T03:41:10;93110.78;;;5.23;92.54
64602;BME280;51013;42.630;23.192;2022-12-18T03:43:48;93068.41;;;4.85;92.07
64602;BME280;51013;42.630;23.192;2022-12-18T03:46:23;93018.97;;;4.47;92.56
64602;BME280;51013;42.630;23.192;2022-12-18T03:48:54;93168.72;;;5.53;93.13
64602;BME280;51013;42.630;23.192;2022-12-18T03:51:26;93061.28;;;4.90;92.29
64602;BME280;51013;42.630;23.192;2022-12-18T03:53:58;92994.34;;;4.39;92.63
64602;BME280;51013;42.630;23.192;2022-12-18T03:56:28;93085.06;;;4.84;93.95
64602;BME280;51013;42.630;23.192;2022-12-18T03:58:58;93136.44;;;5.16;94.33
64602;BME280;51013;42.630;23.192;2022-12-18T04:01:28;93185.84;;;5.59;93.78
64602;BME280;51013;42.630;23.192;2022-12-18T04:03:59;93168.16;;;5.56;93.53
64602;BME280;51013;42.630;23.192;2022-12-18T04:06:28;93193.50;;;5.69;93.01
64602;BME280;51013;42.630;23.192;2022-12-18T04:08:56;93136.72;;;5.33;92.41
64602;BME280;51013;42.630;23.192;2022-12-18T04:11:24;93021.34;;;4.62;91.98
64602;BME280;51013;42.630;23.192;2022-12-18T04:13:57;93071.63;;;4.95;92.38
64602;BME280;51013;42.630;23.192;2022-12-18T04:16:24;93097.59;;;5.19;91.52
64602;BME280;51013;42.630;23.192;2022-12-18T04:18:51;93200.00;;;6.05;90.76
64602;BME280;51013;42.630;23.192;2022-12-18T04:21:18;93102.75;;;5.38;90.86
64602;BME280;51013;42.630;23.192;2022-12-18T04:23:45;93049.56;;;5.07;90.19
64602;BME280;51013;42.630;23.192;2022-12-18T04:26:13;93051.28;;;4.97;90.15
64602;BME280;51013;42.630;23.192;2022-12-18T04:28:39;93168.41;;;5.73;90.43
64602;BME280;51013;42.630;23.192;2022-12-18T04:31:08;92994.63;;;4.56;90.00
64602;BME280;51013;42.630;23.192;2022-12-18T04:33:35;93035.06;;;4.87;89.33
64602;BME280;51013;42.630;23.192;2022-12-18T04:36:02;93060.47;;;5.09;88.77
64602;BME280;51013;42.630;23.192;2022-12-18T04:38:29;93234.16;;;6.22;89.17
64602;BME280;51013;42.630;23.192;2022-12-18T04:40:56;93149.06;;;5.60;89.22
64602;BME280;51013;42.630;23.192;2022-12-18T04:43:22;93227.13;;;6.22;88.48
64602;BME280;51013;42.630;23.192;2022-12-18T04:45:49;92967.09;;;4.36;88.12
64602;BME280;51013;42.630;23.192;2022-12-18T04:48:18;93217.94;;;5.92;88.19
64602;BME280;51013;42.630;23.192;2022-12-18T04:50:46;92930.16;;;3.96;88.31
64602;BME280;51013;42.630;23.192;2022-12-18T04:53:13;93262.25;;;5.73;88.21
64602;BME280;51013;42.630;23.192;2022-12-18T04:55:40;93235.09;;;5.41;89.42
64602;BME280;51013;42.630;23.192;2022-12-18T04:58:08;93187.13;;;5.05;89.77
64602;BME280;51013;42.630;23.192;2022-12-18T05:00:35;92951.28;;;3.47;88.88
64602;BME280;51013;42.630;23.192;2022-12-18T05:03:02;93272.53;;;5.27;89.68
64602;BME280;51013;42.630;23.192;2022-12-18T05:05:30;93289.13;;;5.12;90.62
64602;BME280;51013;42.630;23.192;2022-12-18T05:07:57;93256.88;;;4.89;90.61
64602;BME280;51013;42.630;23.192;2022-12-18T05:10:24;93034.06;;;3.29;90.48
64602;BME280;51013;42.630;23.192;2022-12-18T05:12:51;93048.28;;;3.37;90.71
64602;BME280;51013;42.630;23.192;2022-12-18T05:15:28;93085.59;;;3.46;89.12
64602;BME280;51013;42.630;23.192;2022-12-18T05:17:56;92949.75;;;2.63;90.18
64602;BME280;51013;42.630;23.192;2022-12-18T05:20:23;92942.66;;;2.39;90.00
64602;BME280;51013;42.630;23.192;2022-12-18T05:22:51;93164.75;;;3.88;90.15
64602;BME280;51013;42.630;23.192;2022-12-18T05:25:19;93190.00;;;3.83;89.92
64602;BME280;51013;42.630;23.192;2022-12-18T05:27:47;93188.00;;;3.74;90.66
64602;BME280;51013;42.630;23.192;2022-12-18T05:30:15;93310.91;;;4.73;91.54
64602;BME280;51013;42.630;23.192;2022-12-18T05:32:43;93238.25;;;4.23;89.93
64602;BME280;51013;42.630;23.192;2022-12-18T05:35:10;93264.06;;;4.44;90.04
64602;BME280;51013;42.630;23.192;2022-12-18T05:37:38;93250.16;;;4.29;89.90
64602;BME280;51013;42.630;23.192;2022-12-18T05:40:08;93156.56;;;3.71;89.12
64602;BME280;51013;42.630;23.192;2022-12-18T05:42:35;93099.72;;;3.35;89.53
64602;BME280;51013;42.630;23.192;2022-12-18T05:45:02;93236.84;;;4.07;89.63
64602;BME280;51013;42.630;23.192;2022-12-18T05:47:29;93335.66;;;4.70;89.29
64602;BME280;51013;42.630;23.192;2022-12-18T05:49:56;93332.38;;;4.89;89.40
64602;BME280;51013;42.630;23.192;2022-12-18T05:52:23;93331.28;;;4.66;89.11
64602;BME280;51013;42.630;23.192;2022-12-18T05:54:50;93280.19;;;4.16;89.08
64602;BME280;51013;42.630;23.192;2022-12-18T05:57:18;93235.91;;;3.97;88.65
64602;BME280;51013;42.630;23.192;2022-12-18T05:59:45;93350.81;;;4.63;88.26
64602;BME280;51013;42.630;23.192;2022-12-18T06:02:13;93186.47;;;3.68;87.85
64602;BME280;51013;42.630;23.192;2022-12-18T06:04:40;93194.28;;;3.68;88.69
64602;BME280;51013;42.630;23.192;2022-12-18T06:07:06;93113.59;;;3.20;88.50
64602;BME280;51013;42.630;23.192;2022-12-18T06:09:33;93212.63;;;3.82;87.96
64602;BME280;51013;42.630;23.192;2022-12-18T06:12:00;93151.50;;;3.55;87.28
64602;BME280;51013;42.630;23.192;2022-12-18T06:14:28;93265.34;;;4.22;86.79
64602;BME280;51013;42.630;23.192;2022-12-18T06:16:55;93350.63;;;4.84;87.19
64602;BME280;51013;42.630;23.192;2022-12-18T06:19:22;93173.47;;;3.73;87.28
64602;BME280;51013;42.630;23.192;2022-12-18T06:21:49;93257.47;;;4.27;86.76
64602;BME280;51013;42.630;23.192;2022-12-18T06:24:16;93302.31;;;4.48;87.39
64602;BME280;51013;42.630;23.192;2022-12-18T06:26:43;93350.97;;;4.77;86.98
64602;BME280;51013;42.630;23.192;2022-12-18T06:29:10;93131.19;;;3.28;87.64
64602;BME280;51013;42.630;23.192;2022-12-18T06:31:39;93224.88;;;3.76;86.70
64602;BME280;51013;42.630;23.192;2022-12-18T06:34:06;93309.22;;;4.29;86.47
64602;BME280;51013;42.630;23.192;2022-12-18T06:36:33;93160.19;;;3.40;86.46
64602;BME280;51013;42.630;23.192;2022-12-18T06:39:00;93378.09;;;4.71;87.33
64602;BME280;51013;42.630;23.192;2022-12-18T06:41:27;93282.41;;;3.99;86.60
64602;BME280;51013;42.630;23.192;2022-12-18T06:43:53;93360.63;;;4.42;86.21
64602;BME280;51013;42.630;23.192;2022-12-18T06:46:20;93394.41;;;4.76;86.55
64602;BME280;51013;42.630;23.192;2022-12-18T06:48:49;93239.38;;;3.83;85.26
64602;BME280;51013;42.630;23.192;2022-12-18T06:51:20;93399.88;;;4.80;86.59
64602;BME280;51013;42.630;23.192;2022-12-18T06:53:47;93073.56;;;2.47;86.39
64602;BME280;51013;42.630;23.192;2022-12-18T06:56:15;93389.47;;;4.46;86.29
64602;BME280;51013;42.630;23.192;2022-12-18T06:58:43;93264.38;;;3.78;85.57
64602;BME280;51013;42.630;23.192;2022-12-18T07:01:11;93402.13;;;4.57;86.40
64602;BME280;51013;42.630;23.192;2022-12-18T07:03:40;93365.19;;;4.21;86.44
64602;BME280;51013;42.630;23.192;2022-12-18T07:06:16;93138.75;;;2.85;86.36
64602;BME280;51013;42.630;23.192;2022-12-18T07:08:44;93176.00;;;3.05;86.46
64602;BME280;51013;42.630;23.192;2022-12-18T07:11:13;93404.66;;;4.68;87.36
64602;BME280;51013;42.630;23.192;2022-12-18T07:13:40;93174.81;;;2.87;85.79
64602;BME280;51013;42.630;23.192;2022-12-18T07:16:10;93169.38;;;2.83;86.66
64602;BME280;51013;42.630;23.192;2022-12-18T07:18:39;93128.28;;;2.56;85.96
64602;BME280;51013;42.630;23.192;2022-12-18T07:21:08;93394.00;;;4.30;85.40
64602;BME280;51013;42.630;23.192;2022-12-18T07:23:37;93209.97;;;3.13;85.73
64602;BME280;51013;42.630;23.192;2022-12-18T07:26:05;93421.50;;;4.46;84.36
64602;BME280;51013;42.630;23.192;2022-12-18T07:28:33;93267.69;;;3.45;85.45
64602;BME280;51013;42.630;23.192;2022-12-18T07:31:02;93407.13;;;4.14;86.09
64602;BME280;51013;42.630;23.192;2022-12-18T07:33:29;93429.97;;;4.17;85.37
64602;BME280;51013;42.630;23.192;2022-12-18T07:35:56;93171.91;;;2.44;83.82
64602;BME280;51013;42.630;23.192;2022-12-18T07:38:22;93329.00;;;3.51;84.40
64602;BME280;51013;42.630;23.192;2022-12-18T07:40:51;93435.03;;;4.04;85.44
64602;BME280;51013;42.630;23.192;2022-12-18T07:43:18;93429.78;;;4.09;84.71
64602;BME280;51013;42.630;23.192;2022-12-18T07:45:44;93401.50;;;3.97;85.22
64602;BME280;51013;42.630;23.192;2022-12-18T07:48:13;93425.63;;;4.08;85.23
64602;BME280;51013;42.630;23.192;2022-12-18T07:50:43;93405.19;;;3.91;85.58
64602;BME280;51013;42.630;23.192;2022-12-18T07:53:09;93450.22;;;4.26;84.60
64602;BME280;51013;42.630;23.192;2022-12-18T07:55:37;93435.09;;;4.38;84.76
64602;BME280;51013;42.630;23.192;2022-12-18T07:58:05;93382.53;;;3.96;83.73
64602;BME280;51013;42.630;23.192;2022-12-18T08:00:32;93443.09;;;4.41;83.72
64602;BME280;51013;42.630;23.192;2022-12-18T08:02:59;93446.72;;;4.46;84.07
64602;BME280;51013;42.630;23.192;2022-12-18T08:05:26;93415.00;;;4.04;83.19
64602;BME280;51013;42.630;23.192;2022-12-18T08:07:54;93353.50;;;3.84;83.72
64602;BME280;51013;42.630;23.192;2022-12-18T08:10:21;93456.16;;;4.36;82.80
64602;BME280;51013;42.630;23.192;2022-12-18T08:12:49;93457.88;;;4.51;82.84
64602;BME280;51013;42.630;23.192;2022-12-18T08:15:17;93458.50;;;4.33;83.17
64602;BME280;51013;42.630;23.192;2022-12-18T08:17:44;93238.16;;;2.75;83.69
64602;BME280;51013;42.630;23.192;2022-12-18T08:20:12;93481.28;;;4.12;84.86
64602;BME280;51013;42.630;23.192;2022-12-18T08:22:40;93469.84;;;4.03;85.32
64602;BME280;51013;42.630;23.192;2022-12-18T08:25:08;93483.06;;;4.16;84.78
64602;BME280;51013;42.630;23.192;2022-12-18T08:27:35;93369.75;;;3.55;84.02
64602;BME280;51013;42.630;23.192;2022-12-18T08:30:03;93470.75;;;4.27;83.30
64602;BME280;51013;42.630;23.192;2022-12-18T08:32:31;93436.63;;;3.94;83.44
64602;BME280;51013;42.630;23.192;2022-12-18T08:34:59;93458.09;;;4.15;84.71
64602;BME280;51013;42.630;23.192;2022-12-18T08:37:26;93483.19;;;4.35;83.86
64602;BME280;51013;42.630;23.192;2022-12-18T08:39:53;93486.31;;;4.37;84.07
64602;BME280;51013;42.630;23.192;2022-12-18T08:42:19;93481.88;;;4.43;83.35
64602;BME280;51013;42.630;23.192;2022-12-18T08:45:05;93488.13;;;4.42;83.06
64602;BME280;51013;42.630;23.192;2022-12-18T08:47:33;93127.97;;;1.97;83.26
64602;BME280;51013;42.630;23.192;2022-12-18T08:50:00;93492.84;;;4.30;84.25
64602;BME280;51013;42.630;23.192;2022-12-18T08:52:27;93490.31;;;4.19;85.18
64602;BME280;51013;42.630;23.192;2022-12-18T08:54:53;93498.63;;;4.21;84.25
64602;BME280;51013;42.630;23.192;2022-12-18T08:57:20;93483.25;;;4.30;84.28
64602;BME280;51013;42.630;23.192;2022-12-18T08:59:47;93491.84;;;4.26;83.86
64602;BME280;51013;42.630;23.192;2022-12-18T09:02:14;93496.16;;;4.46;84.91
64602;BME280;51013;42.630;23.192;2022-12-18T09:04:46;93496.09;;;4.56;84.00
64602;BME280;51013;42.630;23.192;2022-12-18T09:07:13;93455.91;;;4.33;83.35
64602;BME280;51013;42.630;23.192;2022-12-18T09:09:40;93457.63;;;4.48;84.02
64602;BME280;51013;42.630;23.192;2022-12-18T09:12:08;93490.53;;;4.73;83.18
64602;BME280;51013;42.630;23.192;2022-12-18T09:14:35;93393.06;;;4.15;82.89
64602;BME280;51013;42.630;23.192;2022-12-18T09:17:03;93439.06;;;4.59;82.82
64602;BME280;51013;42.630;23.192;2022-12-18T09:19:30;93334.69;;;3.97;82.78
64602;BME280;51013;42.630;23.192;2022-12-18T09:21:58;93441.56;;;4.75;82.09
64602;BME280;51013;42.630;23.192;2022-12-18T09:24:25;93486.03;;;5.13;81.64
64602;BME280;51013;42.630;23.192;2022-12-18T09:26:53;93490.88;;;5.25;80.51
64602;BME280;51013;42.630;23.192;2022-12-18T09:29:20;93405.41;;;4.73;81.24
64602;BME280;51013;42.630;23.192;2022-12-18T09:31:47;93454.78;;;4.84;80.75
64602;BME280;51013;42.630;23.192;2022-12-18T09:34:14;93414.88;;;4.59;82.16
64602;BME280;51013;42.630;23.192;2022-12-18T09:36:46;93465.09;;;4.94;81.81
64602;BME280;51013;42.630;23.192;2022-12-18T09:39:14;93394.84;;;4.59;81.90
64602;BME280;51013;42.630;23.192;2022-12-18T09:41:44;93499.28;;;5.16;81.35
64602;BME280;51013;42.630;23.192;2022-12-18T09:44:24;93507.34;;;5.20;83.00
64602;BME280;51013;42.630;23.192;2022-12-18T09:46:59;93499.56;;;5.15;82.95
64602;BME280;51013;42.630;23.192;2022-12-18T09:49:30;93501.28;;;4.95;82.06
64602;BME280;51013;42.630;23.192;2022-12-18T09:52:02;93495.16;;;4.81;82.97
64602;BME280;51013;42.630;23.192;2022-12-18T09:54:35;93489.28;;;4.65;83.93
64602;BME280;51013;42.630;23.192;2022-12-18T09:57:04;93479.78;;;4.79;83.46
64602;BME280;51013;42.630;23.192;2022-12-18T09:59:35;93481.31;;;4.86;83.09
64602;BME280;51013;42.630;23.192;2022-12-18T10:02:13;93415.81;;;4.39;83.42
64602;BME280;51013;42.630;23.192;2022-12-18T10:04:41;93485.69;;;4.90;83.50
64602;BME280;51013;42.630;23.192;2022-12-18T10:07:14;93480.72;;;4.94;83.34
64602;BME280;51013;42.630;23.192;2022-12-18T10:09:48;93481.88;;;5.12;83.71
64602;BME280;51013;42.630;23.192;2022-12-18T10:12:24;93464.38;;;5.17;84.43
64602;BME280;51013;42.630;23.192;2022-12-18T10:15:00;93440.91;;;4.93;83.16
64602;BME280;51013;42.630;23.192;2022-12-18T10:17:35;93484.38;;;5.27;82.40
64602;BME280;51013;42.630;23.192;2022-12-18T10:20:11;93489.88;;;5.20;81.58
64602;BME280;51013;42.630;23.192;2022-12-18T10:22:54;93438.47;;;4.73;82.67
64602;BME280;51013;42.630;23.192;2022-12-18T10:25:29;93484.00;;;5.10;83.73
64602;BME280;51013;42.630;23.192;2022-12-18T10:28:06;93487.00;;;5.22;83.71
64602;BME280;51013;42.630;23.192;2022-12-18T10:30:34;93490.53;;;5.07;82.10
64602;BME280;51013;42.630;23.192;2022-12-18T10:33:01;93488.13;;;5.11;80.97
64602;BME280;51013;42.630;23.192;2022-12-18T10:35:28;93481.97;;;5.01;82.05
64602;BME280;51013;42.630;23.192;2022-12-18T10:38:23;93414.78;;;4.35;81.53
64602;BME280;51013;42.630;23.192;2022-12-18T10:40:54;93426.41;;;4.48;80.74
64602;BME280;51013;42.630;23.192;2022-12-18T10:43:24;93438.47;;;4.73;80.42
64602;BME280;51013;42.630;23.192;2022-12-18T10:46:13;93399.00;;;4.21;80.45
64602;BME280;51013;42.630;23.192;2022-12-18T10:48:53;93485.16;;;4.59;82.29
64602;BME280;51013;42.630;23.192;2022-12-18T10:51:21;93482.03;;;4.57;82.37
64602;BME280;51013;42.630;23.192;2022-12-18T10:53:56;93492.69;;;4.60;81.43
64602;BME280;51013;42.630;23.192;2022-12-18T10:56:27;93445.38;;;4.14;82.16
64602;BME280;51013;42.630;23.192;2022-12-18T10:58:59;93484.78;;;4.36;82.88
64602;BME280;51013;42.630;23.192;2022-12-18T11:01:27;93497.59;;;4.22;81.95
64602;BME280;51013;42.630;23.192;2022-12-18T11:04:04;93499.69;;;4.20;82.65
64602;BME280;51013;42.630;23.192;2022-12-18T11:06:52;93494.69;;;4.34;82.42
64602;BME280;51013;42.630;23.192;2022-12-18T11:09:22;93445.25;;;3.85;80.81
64602;BME280;51013;42.630;23.192;2022-12-18T11:11:52;93495.00;;;4.17;80.78
64602;BME280;51013;42.630;23.192;2022-12-18T11:14:22;93488.44;;;4.30;81.33
64602;BME280;51013;42.630;23.192;2022-12-18T11:16:51;93498.59;;;4.27;80.04
64602;BME280;51013;42.630;23.192;2022-12-18T11:19:31;93514.00;;;4.18;77.88
64602;BME280;51013;42.630;23.192;2022-12-18T11:22:00;93474.38;;;3.76;78.11
64602;BME280;51013;42.630;23.192;2022-12-18T11:24:31;93504.03;;;3.75;76.98
64602;BME280;51013;42.630;23.192;2022-12-18T11:27:03;93509.50;;;3.74;77.79
64602;BME280;51013;42.630;23.192;2022-12-18T11:29:33;93473.44;;;3.52;78.04
64602;BME280;51013;42.630;23.192;2022-12-18T11:32:26;93509.97;;;3.86;77.62
64602;BME280;51013;42.630;23.192;2022-12-18T11:35:00;93471.88;;;3.51;77.23
64602;BME280;51013;42.630;23.192;2022-12-18T11:37:29;93504.22;;;3.94;76.95
64602;BME280;51013;42.630;23.192;2022-12-18T11:39:58;93501.34;;;3.96;77.09
64602;BME280;51013;42.630;23.192;2022-12-18T11:42:34;93511.72;;;4.06;76.43
64602;BME280;51013;42.630;23.192;2022-12-18T11:45:17;93510.47;;;3.88;76.20
64602;BME280;51013;42.630;23.192;2022-12-18T11:47:51;93515.16;;;3.81;76.28
64602;BME280;51013;42.630;23.192;2022-12-18T11:50:24;93420.28;;;3.18;75.66
64602;BME280;51013;42.630;23.192;2022-12-18T11:52:51;93445.69;;;3.37;77.01
64602;BME280;51013;42.630;23.192;2022-12-18T11:55:27;93499.91;;;3.69;76.89
64602;BME280;51013;42.630;23.192;2022-12-18T11:58:01;93422.88;;;3.13;76.74
64602;BME280;51013;42.630;23.192;2022-12-18T12:00:35;93503.19;;;3.85;77.23
64602;BME280;51013;42.630;23.192;2022-12-18T12:03:24;93379.25;;;3.15;76.70
64602;BME280;51013;42.630;23.192;2022-12-18T12:06:01;93503.91;;;4.01;76.98
64602;BME280;51013;42.630;23.192;2022-12-18T12:08:41;93511.16;;;4.14;75.36
64602;BME280;51013;42.630;23.192;2022-12-18T12:11:18;93505.97;;;4.14;74.36
64602;BME280;51013;42.630;23.192;2022-12-18T12:13:56;93410.09;;;3.37;75.64
64602;BME280;51013;42.630;23.192;2022-12-18T12:16:25;93288.56;;;2.64;74.65
64602;BME280;51013;42.630;23.192;2022-12-18T12:19:05;93517.16;;;4.10;74.25
64602;BME280;51013;42.630;23.192;2022-12-18T12:21:40;93503.88;;;4.11;74.01
64602;BME280;51013;42.630;23.192;2022-12-18T12:24:19;93477.75;;;3.77;74.80
64602;BME280;51013;42.630;23.192;2022-12-18T12:26:55;93442.94;;;3.78;74.98
64602;BME280;51013;42.630;23.192;2022-12-18T12:29:35;93426.56;;;3.72;74.21
64602;BME280;51013;42.630;23.192;2022-12-18T12:32:17;93490.69;;;3.97;74.20
64602;BME280;51013;42.630;23.192;2022-12-18T12:34:56;93511.97;;;4.10;75.39
64602;BME280;51013;42.630;23.192;2022-12-18T12:37:30;93437.78;;;3.68;74.36
64602;BME280;51013;42.630;23.192;2022-12-18T12:40:04;93450.19;;;3.86;74.94
64602;BME280;51013;42.630;23.192;2022-12-18T12:42:33;93363.41;;;3.12;75.47
64602;BME280;51013;42.630;23.192;2022-12-18T12:45:23;93508.56;;;4.09;75.39
64602;BME280;51013;42.630;23.192;2022-12-18T12:47:53;93318.34;;;2.77;75.67
64602;BME280;51013;42.630;23.192;2022-12-18T12:50:21;93510.38;;;4.14;76.24
64602;BME280;51013;42.630;23.192;2022-12-18T12:52:51;93320.69;;;2.73;76.15
64602;BME280;51013;42.630;23.192;2022-12-18T12:55:21;93511.97;;;4.10;74.99
64602;BME280;51013;42.630;23.192;2022-12-18T12:57:56;93514.91;;;3.88;76.62
64602;BME280;51013;42.630;23.192;2022-12-18T13:00:30;93517.22;;;3.89;76.76
64602;BME280;51013;42.630;23.192;2022-12-18T13:03:03;93477.25;;;3.75;75.52
64602;BME280;51013;42.630;23.192;2022-12-18T13:05:39;93471.53;;;3.73;76.27
64602;BME280;51013;42.630;23.192;2022-12-18T13:08:09;93203.38;;;2.01;76.47
64602;BME280;51013;42.630;23.192;2022-12-18T13:10:38;93453.34;;;3.73;75.68
64602;BME280;51013;42.630;23.192;2022-12-18T13:13:07;93528.00;;;4.27;75.00
64602;BME280;51013;42.630;23.192;2022-12-18T13:15:38;93535.59;;;4.13;75.49
64602;BME280;51013;42.630;23.192;2022-12-18T13:18:13;93531.97;;;4.14;76.39